Time;durP1;ratioP1;P1;durP2;ratioP2;P2;SDS_P1;SDS_P2;PMS_P1;PMS_P2;Temp;Humidity;BMP_temperature;BMP_pressure;BME280_temperature;BME280_humidity;BME280_pressure;Samples;Min_cycle;Max_cycle;Signal;HPM_P1;HPM_P2
2021/01/03 00:01:00;;;;;;;14.65;8.93;;;;;;;;;;4998748;28;20049;-66
2021/01/03 00:03:26;;;;;;;12.07;8.80;;;;;;;;;;4994353;28;20148;-67
2021/01/03 00:05:51;;;;;;;13.98;9.57;;;;;;;;;;5002560;28;20040;-68
2021/01/03 00:08:17;;;;;;;14.45;9.30;;;;;;;;;;5002986;28;20373;-68
2021/01/03 00:10:42;;;;;;;16.58;9.30;;;;;;;;;;5001850;28;20034;-67
2021/01/03 00:13:08;;;;;;;12.20;8.43;;;;;;;;;;5003476;28;20722;-67
2021/01/03 00:15:33;;;;;;;13.77;9.38;;;;;;;;;;4981371;28;20537;-67
2021/01/03 00:17:58;;;;;;;12.52;9.63;;;;;;;;;;5002158;28;20038;-68
2021/01/03 00:20:27;;;;;;;15.20;8.95;;;;;;;;;;5000211;28;20038;-67
2021/01/03 00:22:52;;;;;;;12.88;9.00;;;;;;;;;;5000909;28;20049;-67
2021/01/03 00:25:20;;;;;;;13.10;8.20;;;;;;;;;;5000941;28;20042;-67
2021/01/03 00:27:46;;;;;;;15.43;9.27;;;;;;;;;;5003127;28;20041;-67
2021/01/03 00:30:14;;;;;;;11.50;8.40;;;;;;;;;;5001779;28;20038;-67
2021/01/03 00:32:40;;;;;;;11.80;8.55;;;;;;;;;;5001516;28;20060;-67
2021/01/03 00:35:09;;;;;;;13.23;9.00;;;;;;;;;;5002503;28;20429;-68
2021/01/03 00:37:34;;;;;;;14.85;8.48;;;;;;;;;;5000696;28;20114;-67
2021/01/03 00:40:00;;;;;;;10.88;7.88;;;;;;;;;;5001697;28;20536;-67
2021/01/03 00:42:25;;;;;;;13.27;7.32;;;;;;;;;;5000064;28;20042;-68
2021/01/03 00:44:51;;;;;;;13.57;8.13;;;;;;;;;;4999579;28;20416;-68
2021/01/03 00:47:16;;;;;;;13.38;7.85;;;;;;;;;;5000624;28;20037;-68
2021/01/03 00:49:42;;;;;;;11.05;7.10;;;;;;;;;;5001925;28;20034;-68
2021/01/03 00:52:07;;;;;;;11.45;7.57;;;;;;;;;;5001477;28;20069;-68
2021/01/03 00:54:32;;;;;;;9.82;7.20;;;;;;;;;;5001364;28;20034;-68
2021/01/03 00:56:58;;;;;;;9.68;6.20;;;;;;;;;;5003378;28;20096;-67
2021/01/03 00:59:23;;;;;;;11.82;6.88;;;;;;;;;;4999121;28;20378;-68
2021/01/03 01:01:49;;;;;;;14.68;7.63;;;;;;;;;;5001072;28;20034;-68
2021/01/03 01:04:14;;;;;;;10.52;7.10;;;;;;;;;;5002343;28;20049;-67
2021/01/03 01:06:40;;;;;;;11.48;7.28;;;;;;;;;;5000742;28;20749;-68
2021/01/03 01:09:06;;;;;;;10.38;6.80;;;;;;;;;;5002782;28;20520;-67
2021/01/03 01:11:31;;;;;;;9.98;7.43;;;;;;;;;;5002844;28;20070;-67
2021/01/03 01:13:56;;;;;;;12.25;7.57;;;;;;;;;;5003211;28;20479;-68
2021/01/03 01:16:22;;;;;;;11.20;7.35;;;;;;;;;;4999474;28;20030;-67
2021/01/03 01:18:48;;;;;;;9.20;7.25;;;;;;;;;;5002900;28;20034;-67
2021/01/03 01:21:13;;;;;;;10.93;7.70;;;;;;;;;;4999183;28;20072;-67
2021/01/03 01:23:38;;;;;;;10.30;6.55;;;;;;;;;;5000037;28;20433;-67
2021/01/03 01:26:04;;;;;;;9.90;7.22;;;;;;;;;;5002397;28;20115;-67
2021/01/03 01:28:29;;;;;;;11.57;7.47;;;;;;;;;;5000175;28;20034;-68
2021/01/03 01:30:56;;;;;;;15.77;8.30;;;;;;;;;;4999930;28;20076;-68
2021/01/03 01:33:21;;;;;;;13.23;7.43;;;;;;;;;;4996287;28;20089;-67
2021/01/03 01:35:47;;;;;;;10.43;7.68;;;;;;;;;;5002188;28;20420;-67
2021/01/03 01:38:12;;;;;;;11.40;7.75;;;;;;;;;;5000581;28;20034;-67
2021/01/03 01:40:39;;;;;;;17.58;8.25;;;;;;;;;;5001055;28;20227;-67
2021/01/03 01:43:09;;;;;;;14.68;8.18;;;;;;;;;;5000877;28;20369;-67
2021/01/03 01:45:38;;;;;;;12.93;8.55;;;;;;;;;;5000414;28;20486;-67
2021/01/03 01:48:13;;;;;;;13.20;8.75;;;;;;;;;;5002310;28;20077;-67
2021/01/03 01:50:52;;;;;;;15.98;8.85;;;;;;;;;;5000315;28;20030;-67
2021/01/03 01:53:26;;;;;;;11.40;7.85;;;;;;;;;;5000827;28;20041;-67
2021/01/03 01:56:07;;;;;;;11.90;8.23;;;;;;;;;;4999629;28;20030;-67
2021/01/03 01:58:46;;;;;;;10.40;7.65;;;;;;;;;;4998330;28;20057;-67
2021/01/03 02:01:17;;;;;;;9.75;7.35;;;;;;;;;;4999764;28;20034;-67
2021/01/03 02:03:49;;;;;;;10.07;7.18;;;;;;;;;;5000073;28;20061;-68
2021/01/03 02:06:24;;;;;;;9.57;6.70;;;;;;;;;;5000795;28;20492;-68
2021/01/03 02:08:56;;;;;;;11.90;7.60;;;;;;;;;;5001562;28;20125;-67
2021/01/03 02:11:26;;;;;;;11.40;8.95;;;;;;;;;;4996910;28;20048;-68
2021/01/03 02:13:54;;;;;;;14.73;9.77;;;;;;;;;;4999016;28;20113;-67
2021/01/03 02:16:23;;;;;;;11.77;8.50;;;;;;;;;;4999019;28;20060;-68
2021/01/03 02:18:50;;;;;;;13.85;7.97;;;;;;;;;;4999033;28;20034;-67
2021/01/03 02:21:36;;;;;;;11.98;8.20;;;;;;;;;;4998972;28;20139;-67
2021/01/03 02:24:05;;;;;;;14.30;8.50;;;;;;;;;;5001308;28;20044;-68
2021/01/03 02:26:35;;;;;;;10.75;7.65;;;;;;;;;;4998199;28;20030;-68
2021/01/03 02:29:02;;;;;;;12.98;8.80;;;;;;;;;;4997875;28;20073;-68
2021/01/03 02:31:39;;;;;;;13.35;9.20;;;;;;;;;;4995389;28;20477;-68
2021/01/03 02:34:06;;;;;;;10.95;8.77;;;;;;;;;;4998982;28;20091;-67
2021/01/03 02:36:38;;;;;;;11.35;7.40;;;;;;;;;;4997839;28;20040;-67
2021/01/03 02:39:12;;;;;;;;;;;;;;;;;;4998401;28;20034;-68
2021/01/03 02:41:37;;;;;;;9.02;6.60;;;;;;;;;;4997784;28;20008;-68
2021/01/03 02:44:03;;;;;;;11.38;7.63;;;;;;;;;;5000736;28;20112;-68
2021/01/03 02:46:29;;;;;;;9.68;7.15;;;;;;;;;;4998379;28;20049;-68
2021/01/03 02:48:54;;;;;;;9.15;7.05;;;;;;;;;;5000411;28;20029;-68
2021/01/03 02:51:22;;;;;;;10.13;7.55;;;;;;;;;;4997493;28;20084;-67
2021/01/03 02:53:48;;;;;;;11.57;7.75;;;;;;;;;;5000403;28;20113;-68
2021/01/03 02:56:13;;;;;;;11.88;7.75;;;;;;;;;;4998315;28;20152;-68
2021/01/03 02:58:38;;;;;;;11.02;7.90;;;;;;;;;;4999803;28;20026;-68
2021/01/03 03:01:04;;;;;;;8.77;6.93;;;;;;;;;;4999809;28;20042;-68
2021/01/03 03:03:29;;;;;;;9.00;7.00;;;;;;;;;;4996295;28;20477;-68
2021/01/03 03:05:54;;;;;;;9.48;7.32;;;;;;;;;;5001408;28;20045;-68
2021/01/03 03:08:20;;;;;;;9.13;6.93;;;;;;;;;;4997347;28;20026;-68
2021/01/03 03:10:45;;;;;;;11.40;7.07;;;;;;;;;;4997240;28;20050;-68
2021/01/03 03:13:11;;;;;;;10.73;7.50;;;;;;;;;;4998889;28;20033;-68
2021/01/03 03:15:37;;;;;;;9.55;7.25;;;;;;;;;;4998629;28;20037;-68
2021/01/03 03:18:08;;;;;;;10.57;7.70;;;;;;;;;;4999355;28;20041;-68
2021/01/03 03:20:33;;;;;;;17.40;9.00;;;;;;;;;;4998656;28;20505;-67
2021/01/03 03:22:59;;;;;;;17.85;10.52;;;;;;;;;;5000913;28;20045;-68
2021/01/03 03:25:24;;;;;;;19.48;11.40;;;;;;;;;;4997096;28;20038;-68
2021/01/03 03:27:49;;;;;;;16.90;10.75;;;;;;;;;;4995843;28;20051;-68
2021/01/03 03:30:18;;;;;;;20.30;11.73;;;;;;;;;;4999587;28;20034;-67
2021/01/03 03:32:50;;;;;;;24.80;12.57;;;;;;;;;;4999511;28;20077;-66
2021/01/03 03:35:15;;;;;;;16.20;10.80;;;;;;;;;;4994986;28;20046;-67
2021/01/03 03:37:41;;;;;;;11.43;9.20;;;;;;;;;;5000563;28;20089;-67
2021/01/03 03:40:07;;;;;;;13.73;8.90;;;;;;;;;;5000164;28;20047;-66
2021/01/03 03:42:33;;;;;;;13.73;9.20;;;;;;;;;;4998006;28;20085;-66
2021/01/03 03:44:58;;;;;;;11.73;8.75;;;;;;;;;;4999048;28;20045;-66
2021/01/03 03:47:27;;;;;;;10.82;8.68;;;;;;;;;;4997602;28;20042;-67
2021/01/03 03:49:53;;;;;;;14.48;9.13;;;;;;;;;;4995352;28;20049;-66
2021/01/03 03:52:18;;;;;;;14.15;9.20;;;;;;;;;;4993360;28;20062;-66
2021/01/03 03:54:44;;;;;;;12.18;9.15;;;;;;;;;;4998589;28;20116;-66
2021/01/03 03:57:09;;;;;;;15.20;10.05;;;;;;;;;;4999770;28;20169;-66
2021/01/03 03:59:37;;;;;;;17.83;11.15;;;;;;;;;;4992752;28;20110;-66
2021/01/03 04:02:03;;;;;;;20.60;11.27;;;;;;;;;;4997052;28;20195;-66
2021/01/03 04:04:28;;;;;;;21.80;11.30;;;;;;;;;;4997211;28;20110;-66
2021/01/03 04:06:53;;;;;;;16.70;11.07;;;;;;;;;;5000212;28;20025;-67
2021/01/03 04:09:20;;;;;;;19.10;12.02;;;;;;;;;;4995635;28;20418;-67
2021/01/03 04:11:47;;;;;;;20.88;11.95;;;;;;;;;;5000094;28;20019;-66
2021/01/03 04:14:15;;;;;;;15.90;10.25;;;;;;;;;;4999407;28;20057;-66
2021/01/03 04:16:59;;;;;;;16.35;10.23;;;;;;;;;;4998028;28;20377;-66
2021/01/03 04:19:26;;;;;;;14.90;9.57;;;;;;;;;;4998076;28;20121;-66
2021/01/03 04:21:58;;;;;;;16.77;10.35;;;;;;;;;;4997758;28;20381;-67
2021/01/03 04:24:25;;;;;;;17.65;10.50;;;;;;;;;;4996183;28;20043;-66
2021/01/03 04:26:56;;;;;;;13.18;8.85;;;;;;;;;;4999992;28;20350;-67
2021/01/03 04:29:21;;;;;;;;;;;;;;;;;;4998188;28;20038;-66
2021/01/03 04:31:52;;;;;;;14.20;8.48;;;;;;;;;;4997724;28;19909;-67
2021/01/03 04:34:17;;;;;;;16.73;9.35;;;;;;;;;;4995312;28;20212;-66
2021/01/03 04:36:42;;;;;;;13.02;9.45;;;;;;;;;;4998760;28;20165;-67
2021/01/03 04:39:08;;;;;;;14.90;9.48;;;;;;;;;;4998475;28;20480;-67
2021/01/03 04:41:37;;;;;;;12.82;9.23;;;;;;;;;;4996077;28;20062;-66
2021/01/03 04:44:07;;;;;;;14.75;8.75;;;;;;;;;;4998978;28;20033;-67
2021/01/03 04:46:38;;;;;;;12.40;8.88;;;;;;;;;;4996533;28;20481;-67
2021/01/03 04:49:06;;;;;;;10.47;8.20;;;;;;;;;;4998936;28;20049;-66
2021/01/03 04:51:40;;;;;;;11.27;8.52;;;;;;;;;;4997862;28;20111;-66
2021/01/03 04:54:19;;;;;;;10.52;9.05;;;;;;;;;;5003192;28;20437;-66
2021/01/03 04:56:46;;;;;;;13.38;9.20;;;;;;;;;;5001565;28;20096;-67
2021/01/03 04:59:15;;;;;;;13.00;9.07;;;;;;;;;;5001918;28;20531;-66
2021/01/03 05:01:49;;;;;;;11.57;8.68;;;;;;;;;;5000089;28;20125;-67
2021/01/03 05:04:33;;;;;;;11.98;8.77;;;;;;;;;;5002221;28;20038;-66
2021/01/03 05:07:05;;;;;;;14.70;9.55;;;;;;;;;;5000626;28;20049;-67
2021/01/03 05:09:30;;;;;;;12.45;9.55;;;;;;;;;;4997135;28;20047;-67
2021/01/03 05:12:21;;;;;;;12.73;10.68;;;;;;;;;;5003317;28;20374;-67
2021/01/03 05:15:10;;;;;;;14.70;10.60;;;;;;;;;;5002880;28;20044;-66
2021/01/03 05:17:36;;;;;;;14.48;11.15;;;;;;;;;;4998725;28;20042;-66
2021/01/03 05:20:04;;;;;;;14.02;10.70;;;;;;;;;;4999875;28;20033;-66
2021/01/03 05:22:37;;;;;;;13.20;9.85;;;;;;;;;;4996713;28;20049;-66
2021/01/03 05:25:06;;;;;;;12.35;10.65;;;;;;;;;;5001697;28;20021;-66
2021/01/03 05:27:32;;;;;;;12.85;10.52;;;;;;;;;;4998983;28;20294;-66
2021/01/03 05:30:27;;;;;;;16.00;9.68;;;;;;;;;;5001273;28;20474;-66
2021/01/03 05:32:52;;;;;;;14.93;10.27;;;;;;;;;;4997080;28;20045;-67
2021/01/03 05:35:22;;;;;;;14.63;10.05;;;;;;;;;;5000386;28;20034;-66
2021/01/03 05:37:49;;;;;;;13.07;10.07;;;;;;;;;;5001626;28;20064;-66
2021/01/03 05:40:42;;;;;;;12.98;10.43;;;;;;;;;;5001106;28;20073;-66
2021/01/03 05:43:21;;;;;;;14.02;9.82;;;;;;;;;;4998284;28;20069;-66
2021/01/03 05:46:07;;;;;;;12.52;9.50;;;;;;;;;;4999372;28;20659;-67
2021/01/03 05:48:38;;;;;;;14.88;9.90;;;;;;;;;;4992217;28;20374;-66
2021/01/03 05:51:09;;;;;;;11.75;9.95;;;;;;;;;;5001440;28;20455;-66
2021/01/03 05:53:34;;;;;;;12.90;9.90;;;;;;;;;;4999834;28;20037;-66
2021/01/03 05:56:02;;;;;;;11.85;9.77;;;;;;;;;;5001262;28;20049;-67
2021/01/03 05:58:30;;;;;;;14.43;9.85;;;;;;;;;;4997331;28;20105;-67
2021/01/03 06:01:03;;;;;;;12.18;10.23;;;;;;;;;;4998062;28;20038;-67
2021/01/03 06:03:30;;;;;;;13.00;10.68;;;;;;;;;;4995245;28;20130;-67
2021/01/03 06:06:08;;;;;;;13.98;10.55;;;;;;;;;;5001560;28;20141;-67
2021/01/03 06:08:36;;;;;;;12.68;9.85;;;;;;;;;;4992753;28;20043;-66
2021/01/03 06:11:17;;;;;;;13.02;9.50;;;;;;;;;;5001441;28;20358;-67
2021/01/03 06:13:57;;;;;;;13.73;9.27;;;;;;;;;;5001611;28;20025;-66
2021/01/03 06:16:26;;;;;;;13.23;10.23;;;;;;;;;;4994894;28;20034;-67
2021/01/03 06:19:01;;;;;;;14.23;10.35;;;;;;;;;;4998655;28;20029;-66
2021/01/03 06:21:30;;;;;;;11.40;9.23;;;;;;;;;;4997054;28;20073;-65
2021/01/03 06:24:07;;;;;;;14.20;9.38;;;;;;;;;;5000839;28;20034;-66
2021/01/03 06:26:40;;;;;;;13.20;9.98;;;;;;;;;;4997642;28;20038;-66
2021/01/03 06:29:17;;;;;;;11.25;8.77;;;;;;;;;;5000858;28;20084;-67
2021/01/03 06:31:42;;;;;;;14.00;9.02;;;;;;;;;;5000070;28;20038;-66
2021/01/03 06:34:14;;;;;;;12.20;9.25;;;;;;;;;;4999739;28;20487;-66
2021/01/03 06:37:06;;;;;;;14.25;8.63;;;;;;;;;;5000172;28;20034;-66
2021/01/03 06:39:52;;;;;;;14.90;10.25;;;;;;;;;;4978756;28;20046;-67
2021/01/03 06:42:55;;;;;;;13.13;9.88;;;;;;;;;;4958751;28;20141;-66
2021/01/03 06:45:38;;;;;;;11.90;9.73;;;;;;;;;;4996376;28;20052;-66
2021/01/03 06:48:22;;;;;;;11.88;9.40;;;;;;;;;;5000551;28;20179;-66
2021/01/03 06:51:08;;;;;;;16.20;11.05;;;;;;;;;;4999796;28;20112;-67
2021/01/03 06:53:36;;;;;;;13.77;10.05;;;;;;;;;;4995994;28;20069;-66
2021/01/03 06:56:21;;;;;;;21.20;10.50;;;;;;;;;;4998779;28;20475;-66
2021/01/03 06:59:06;;;;;;;12.95;10.13;;;;;;;;;;4999360;28;20025;-66
2021/01/03 07:01:34;;;;;;;13.43;10.32;;;;;;;;;;4996391;28;20129;-66
2021/01/03 07:04:07;;;;;;;14.38;11.18;;;;;;;;;;4998662;28;20093;-67
2021/01/03 07:06:34;;;;;;;16.40;12.20;;;;;;;;;;4997606;28;20050;-67
2021/01/03 07:09:07;;;;;;;16.60;12.10;;;;;;;;;;5000160;28;20038;-67
2021/01/03 07:11:56;;;;;;;16.05;11.40;;;;;;;;;;4996950;28;20140;-67
2021/01/03 07:14:22;;;;;;;13.25;10.70;;;;;;;;;;4990141;28;20611;-67
2021/01/03 07:16:58;;;;;;;18.08;11.20;;;;;;;;;;4998547;28;20029;-67
2021/01/03 07:19:29;;;;;;;13.85;11.30;;;;;;;;;;4997033;28;20045;-67
2021/01/03 07:22:12;;;;;;;15.40;10.82;;;;;;;;;;4991409;28;20068;-66
2021/01/03 07:24:58;;;;;;;16.00;11.13;;;;;;;;;;4997498;28;20038;-66
2021/01/03 07:27:52;;;;;;;14.98;10.60;;;;;;;;;;4986131;28;20065;-67
2021/01/03 07:30:27;;;;;;;13.85;10.48;;;;;;;;;;4995661;28;20605;-67
2021/01/03 07:33:11;;;;;;;17.27;11.52;;;;;;;;;;4996676;28;20099;-67
2021/01/03 07:35:40;;;;;;;21.02;11.07;;;;;;;;;;4997628;28;20078;-67
2021/01/03 07:38:27;;;;;;;16.70;10.88;;;;;;;;;;4998290;28;20160;-67
2021/01/03 07:41:06;;;;;;;18.88;11.00;;;;;;;;;;4991969;28;21355;-67
2021/01/03 07:43:53;;;;;;;18.83;12.35;;;;;;;;;;4995938;28;20037;-67
2021/01/03 07:46:51;;;;;;;19.02;12.75;;;;;;;;;;4996696;28;20029;-67
2021/01/03 07:49:31;;;;;;;20.50;12.02;;;;;;;;;;4995857;28;20083;-67
2021/01/03 07:52:01;;;;;;;23.58;13.23;;;;;;;;;;4993763;28;20068;-67
2021/01/03 07:54:27;;;;;;;23.95;13.60;;;;;;;;;;4995221;28;20027;-68
2021/01/03 07:56:52;;;;;;;19.67;13.15;;;;;;;;;;4993782;28;20048;-67
2021/01/03 07:59:17;;;;;;;18.00;10.77;;;;;;;;;;4998258;28;20117;-67
2021/01/03 08:01:47;;;;;;;15.77;11.73;;;;;;;;;;4996061;28;20026;-67
2021/01/03 08:04:26;;;;;;;15.70;11.18;;;;;;;;;;4995993;28;20041;-67
2021/01/03 08:07:02;;;;;;;16.98;11.75;;;;;;;;;;4998805;28;20065;-67
2021/01/03 08:09:28;;;;;;;14.25;10.57;;;;;;;;;;4995235;28;20034;-66
2021/01/03 08:12:02;;;;;;;14.27;10.68;;;;;;;;;;4998553;28;20026;-67
2021/01/03 08:14:32;;;;;;;19.23;9.98;;;;;;;;;;4993511;28;20046;-66
2021/01/03 08:17:02;;;;;;;12.13;9.98;;;;;;;;;;4999455;28;20112;-66
2021/01/03 08:19:29;;;;;;;11.43;9.35;;;;;;;;;;4995146;28;20100;-66
2021/01/03 08:22:00;;;;;;;14.98;10.73;;;;;;;;;;4998741;28;20042;-67
2021/01/03 08:24:28;;;;;;;14.23;10.48;;;;;;;;;;4996914;28;20030;-66
2021/01/03 08:27:00;;;;;;;12.15;9.63;;;;;;;;;;5000057;28;20037;-67
2021/01/03 08:29:33;;;;;;;13.60;10.02;;;;;;;;;;5001625;28;20465;-66
2021/01/03 08:32:03;;;;;;;14.98;11.27;;;;;;;;;;4999899;28;20712;-67
2021/01/03 08:34:32;;;;;;;14.35;10.10;;;;;;;;;;4998881;28;20121;-67
2021/01/03 08:36:58;;;;;;;13.73;9.88;;;;;;;;;;5003802;28;20072;-67
2021/01/03 08:39:28;;;;;;;13.35;10.02;;;;;;;;;;4999245;28;20069;-65
2021/01/03 08:42:00;;;;;;;13.93;10.73;;;;;;;;;;4999091;28;20038;-66
2021/01/03 08:44:34;;;;;;;14.00;10.80;;;;;;;;;;5000416;28;20121;-66
2021/01/03 08:47:11;;;;;;;12.88;10.20;;;;;;;;;;5001347;28;20048;-66
2021/01/03 08:49:41;;;;;;;16.63;10.07;;;;;;;;;;5000801;28;20126;-64
2021/01/03 08:52:20;;;;;;;14.35;10.13;;;;;;;;;;5001253;28;20061;-65
2021/01/03 08:55:02;;;;;;;13.13;9.88;;;;;;;;;;5001974;28;20034;-66
2021/01/03 08:57:27;;;;;;;15.57;10.57;;;;;;;;;;4999700;28;20034;-67
2021/01/03 08:59:52;;;;;;;16.75;10.98;;;;;;;;;;5002940;28;20034;-66
2021/01/03 09:02:23;;;;;;;15.77;10.07;;;;;;;;;;4997684;28;20050;-65
2021/01/03 09:04:53;;;;;;;13.88;10.75;;;;;;;;;;4999011;28;20029;-65
2021/01/03 09:07:19;;;;;;;14.75;11.75;;;;;;;;;;5000597;28;20126;-64
2021/01/03 09:09:48;;;;;;;15.77;10.80;;;;;;;;;;5001371;28;20038;-64
2021/01/03 09:12:14;;;;;;;14.60;11.07;;;;;;;;;;4999617;28;20104;-64
2021/01/03 09:14:49;;;;;;;14.88;11.15;;;;;;;;;;4999793;28;20062;-63
2021/01/03 09:17:20;;;;;;;18.20;11.43;;;;;;;;;;4999512;28;20048;-66
2021/01/03 09:19:57;;;;;;;13.77;10.75;;;;;;;;;;4997208;28;20113;-63
2021/01/03 09:22:29;;;;;;;16.35;10.30;;;;;;;;;;4999254;28;20163;-65
2021/01/03 09:25:02;;;;;;;17.52;10.30;;;;;;;;;;5000746;28;20109;-66
2021/01/03 09:27:29;;;;;;;13.32;10.38;;;;;;;;;;4994527;28;20448;-66
2021/01/03 09:30:17;;;;;;;14.38;10.05;;;;;;;;;;5001010;28;20030;-65
2021/01/03 09:32:45;;;;;;;13.70;9.55;;;;;;;;;;4998342;28;20457;-65
2021/01/03 09:35:16;;;;;;;13.48;9.55;;;;;;;;;;4999876;28;20121;-65
2021/01/03 09:38:00;;;;;;;14.65;11.32;;;;;;;;;;4999650;28;20113;-65
2021/01/03 09:40:43;;;;;;;13.43;10.13;;;;;;;;;;4996648;28;20129;-65
2021/01/03 09:43:20;;;;;;;18.55;11.57;;;;;;;;;;4999888;28;20120;-65
2021/01/03 09:46:18;;;;;;;14.13;10.68;;;;;;;;;;4998875;28;20042;-65
2021/01/03 09:48:43;;;;;;;16.95;11.60;;;;;;;;;;5000151;28;20284;-65
2021/01/03 09:51:33;;;;;;;16.60;11.10;;;;;;;;;;4997517;28;20172;-65
2021/01/03 09:54:10;;;;;;;14.27;10.25;;;;;;;;;;5000735;28;20682;-64
2021/01/03 09:56:38;;;;;;;14.27;11.52;;;;;;;;;;4997990;28;20172;-65
2021/01/03 09:59:16;;;;;;;14.00;10.43;;;;;;;;;;4998010;28;20056;-64
2021/01/03 10:01:43;;;;;;;18.10;11.30;;;;;;;;;;4998356;28;20108;-65
2021/01/03 10:04:24;;;;;;;15.80;11.38;;;;;;;;;;5000154;28;20034;-64
2021/01/03 10:06:53;;;;;;;16.65;10.88;;;;;;;;;;5001586;28;20040;-65
2021/01/03 10:09:24;;;;;;;15.95;10.85;;;;;;;;;;4999420;28;20065;-67
2021/01/03 10:11:51;;;;;;;14.18;10.60;;;;;;;;;;5000462;28;20037;-64
2021/01/03 10:14:33;;;;;;;14.77;11.50;;;;;;;;;;4997037;28;20037;-66
2021/01/03 10:17:21;;;;;;;13.73;10.95;;;;;;;;;;4999391;28;20073;-65
2021/01/03 10:19:46;;;;;;;12.90;10.38;;;;;;;;;;4999054;28;20069;-65
2021/01/03 10:22:33;;;;;;;17.42;10.80;;;;;;;;;;4993583;28;20084;-65
2021/01/03 10:25:01;;;;;;;12.73;10.63;;;;;;;;;;4999738;28;20125;-65
2021/01/03 10:27:27;;;;;;;15.73;10.52;;;;;;;;;;4997996;28;20424;-65
2021/01/03 10:29:53;;;;;;;17.85;9.88;;;;;;;;;;4995911;28;20041;-64
2021/01/03 10:32:19;;;;;;;13.70;10.07;;;;;;;;;;4998045;28;20230;-63
2021/01/03 10:34:45;;;;;;;13.63;9.82;;;;;;;;;;4998025;28;20034;-64
2021/01/03 10:37:10;;;;;;;11.82;9.07;;;;;;;;;;4998305;28;20041;-65
2021/01/03 10:39:35;;;;;;;10.60;9.10;;;;;;;;;;4998121;28;20068;-65
2021/01/03 10:42:04;;;;;;;12.88;9.30;;;;;;;;;;5000200;28;20034;-65
2021/01/03 10:44:29;;;;;;;11.38;9.35;;;;;;;;;;4995820;28;20034;-65
2021/01/03 10:46:55;;;;;;;11.75;9.02;;;;;;;;;;4999507;28;20025;-65
2021/01/03 10:49:21;;;;;;;13.18;9.35;;;;;;;;;;4997866;28;20042;-65
2021/01/03 10:51:47;;;;;;;12.57;9.25;;;;;;;;;;4999599;28;20138;-66
2021/01/03 10:54:17;;;;;;;12.65;8.90;;;;;;;;;;4999082;28;20188;-65
2021/01/03 10:56:47;;;;;;;11.55;8.80;;;;;;;;;;4998012;28;20254;-66
2021/01/03 10:59:12;;;;;;;13.02;8.55;;;;;;;;;;4999593;28;20045;-65
2021/01/03 11:01:38;;;;;;;12.63;9.82;;;;;;;;;;4998554;28;20485;-65
2021/01/03 11:04:04;;;;;;;11.18;8.65;;;;;;;;;;4998043;28;20033;-65
2021/01/03 11:06:37;;;;;;;12.63;9.30;;;;;;;;;;4996705;28;20428;-66
2021/01/03 11:09:03;;;;;;;11.63;8.98;;;;;;;;;;4995251;28;20034;-66
2021/01/03 11:11:29;;;;;;;14.68;9.20;;;;;;;;;;4994033;28;20034;-66
2021/01/03 11:13:54;;;;;;;11.75;8.25;;;;;;;;;;4990353;28;20068;-66
2021/01/03 11:16:19;;;;;;;10.35;7.68;;;;;;;;;;4989122;28;20148;-66
2021/01/03 11:18:45;;;;;;;12.25;8.95;;;;;;;;;;4998438;28;20027;-66
2021/01/03 11:21:14;;;;;;;13.07;8.10;;;;;;;;;;4991367;28;20562;-67
2021/01/03 11:23:39;;;;;;;11.02;8.23;;;;;;;;;;4994377;28;20700;-65
2021/01/03 11:26:05;;;;;;;10.93;9.32;;;;;;;;;;4999758;28;20029;-65
2021/01/03 11:28:31;;;;;;;13.15;10.00;;;;;;;;;;4996582;28;20461;-67
2021/01/03 11:30:56;;;;;;;12.18;9.57;;;;;;;;;;4989792;28;20034;-64
2021/01/03 11:33:22;;;;;;;10.77;8.57;;;;;;;;;;4995905;28;20040;-67
2021/01/03 11:35:47;;;;;;;11.32;8.93;;;;;;;;;;4997515;28;20275;-66
2021/01/03 11:38:13;;;;;;;11.75;8.07;;;;;;;;;;4996194;28;20076;-64
2021/01/03 11:40:38;;;;;;;12.48;8.05;;;;;;;;;;4997766;28;20525;-66
2021/01/03 11:43:04;;;;;;;11.10;8.30;;;;;;;;;;4997722;28;20472;-66
2021/01/03 11:45:29;;;;;;;13.40;10.10;;;;;;;;;;4997199;28;20041;-66
2021/01/03 11:47:55;;;;;;;9.82;8.30;;;;;;;;;;4998262;28;20079;-66
2021/01/03 11:50:24;;;;;;;10.60;8.43;;;;;;;;;;4997374;28;20527;-66
2021/01/03 11:52:50;;;;;;;16.10;9.82;;;;;;;;;;4998753;28;20119;-66
2021/01/03 11:55:18;;;;;;;10.88;8.55;;;;;;;;;;4995306;28;20038;-65
2021/01/03 11:57:44;;;;;;;13.20;9.00;;;;;;;;;;5008313;28;20050;-65
2021/01/03 12:00:12;;;;;;;10.88;9.50;;;;;;;;;;4999656;28;20044;-67
2021/01/03 12:02:39;;;;;;;13.15;9.82;;;;;;;;;;5001345;28;20038;-67
2021/01/03 12:05:06;;;;;;;13.75;10.77;;;;;;;;;;5002858;28;20038;-67
2021/01/03 12:07:32;;;;;;;16.80;11.65;;;;;;;;;;5000421;28;20038;-66
2021/01/03 12:09:57;;;;;;;14.27;10.93;;;;;;;;;;5002286;28;20081;-65
2021/01/03 12:12:22;;;;;;;12.13;9.75;;;;;;;;;;5000764;28;20525;-65
2021/01/03 12:14:49;;;;;;;13.88;9.63;;;;;;;;;;4998305;28;20046;-64
2021/01/03 12:17:18;;;;;;;13.30;10.00;;;;;;;;;;4999403;28;20149;-65
2021/01/03 12:19:45;;;;;;;12.38;10.32;;;;;;;;;;5000020;28;20034;-64
2021/01/03 12:22:11;;;;;;;14.70;9.68;;;;;;;;;;5001797;28;20049;-65
2021/01/03 12:24:37;;;;;;;14.85;9.57;;;;;;;;;;4998412;28;20325;-66
2021/01/03 12:27:02;;;;;;;11.55;9.00;;;;;;;;;;5000013;28;20030;-66
2021/01/03 12:29:28;;;;;;;12.98;10.20;;;;;;;;;;4996720;28;20030;-66
2021/01/03 12:31:59;;;;;;;12.40;9.95;;;;;;;;;;5002204;28;20042;-65
2021/01/03 12:34:26;;;;;;;13.73;9.88;;;;;;;;;;4999506;28;20034;-67
2021/01/03 12:37:00;;;;;;;11.27;8.80;;;;;;;;;;4998796;28;20107;-66
2021/01/03 12:39:25;;;;;;;15.18;10.40;;;;;;;;;;4999148;28;20041;-66
2021/01/03 12:41:52;;;;;;;14.35;11.05;;;;;;;;;;5000438;28;20030;-67
2021/01/03 12:44:18;;;;;;;12.02;9.98;;;;;;;;;;5000039;28;20033;-66
2021/01/03 12:46:43;;;;;;;13.38;10.35;;;;;;;;;;5001839;28;20168;-66
2021/01/03 12:49:10;;;;;;;14.13;10.15;;;;;;;;;;4998794;28;20034;-66
2021/01/03 12:51:35;;;;;;;15.15;10.55;;;;;;;;;;5000176;28;20118;-64
2021/01/03 12:54:01;;;;;;;13.52;10.70;;;;;;;;;;4999914;28;20113;-65
2021/01/03 12:56:28;;;;;;;13.63;10.82;;;;;;;;;;4999667;28;20406;-65
2021/01/03 12:58:55;;;;;;;14.18;10.60;;;;;;;;;;5000142;28;20037;-66
2021/01/03 13:01:22;;;;;;;13.77;10.15;;;;;;;;;;5001186;28;20045;-66
2021/01/03 13:03:48;;;;;;;12.40;9.40;;;;;;;;;;5001861;28;20069;-67
2021/01/03 13:06:13;;;;;;;13.23;9.98;;;;;;;;;;4997425;28;20076;-67
2021/01/03 13:08:39;;;;;;;11.95;9.25;;;;;;;;;;4999551;28;20037;-67
2021/01/03 13:11:04;;;;;;;13.98;9.75;;;;;;;;;;5000802;28;20042;-66
2021/01/03 13:13:30;;;;;;;13.75;9.60;;;;;;;;;;4999510;28;20022;-67
2021/01/03 13:15:55;;;;;;;13.77;7.60;;;;;;;;;;4999480;28;20369;-66
2021/01/03 13:18:20;;;;;;;13.50;9.63;;;;;;;;;;4999866;28;20029;-66
2021/01/03 13:20:46;;;;;;;12.30;10.07;;;;;;;;;;4999738;28;20038;-68
2021/01/03 13:23:11;;;;;;;12.50;9.38;;;;;;;;;;5000631;28;20689;-64
2021/01/03 13:25:36;;;;;;;11.65;9.30;;;;;;;;;;4997681;28;20479;-64
2021/01/03 13:28:02;;;;;;;12.88;9.93;;;;;;;;;;4999993;28;20037;-64
2021/01/03 13:30:28;;;;;;;12.32;8.95;;;;;;;;;;5000970;28;20048;-65
2021/01/03 13:32:53;;;;;;;12.75;10.32;;;;;;;;;;5001494;28;20030;-66
2021/01/03 13:35:18;;;;;;;12.50;9.18;;;;;;;;;;5007072;28;20034;-66
2021/01/03 13:37:44;;;;;;;14.05;10.30;;;;;;;;;;4997716;28;20038;-66
2021/01/03 13:40:11;;;;;;;13.35;10.50;;;;;;;;;;4996131;28;21025;-66
2021/01/03 13:42:37;;;;;;;13.00;8.65;;;;;;;;;;4997685;28;20038;-65
2021/01/03 13:45:07;;;;;;;10.02;8.40;;;;;;;;;;5001550;28;20121;-66
2021/01/03 13:47:32;;;;;;;12.57;9.75;;;;;;;;;;4995863;28;20035;-66
2021/01/03 13:49:57;;;;;;;10.75;8.98;;;;;;;;;;5001117;28;20118;-66
2021/01/03 13:52:23;;;;;;;11.45;8.82;;;;;;;;;;4997598;28;20038;-66
2021/01/03 13:54:49;;;;;;;12.98;9.13;;;;;;;;;;4999578;28;20030;-66
2021/01/03 13:57:14;;;;;;;11.00;8.80;;;;;;;;;;5000701;28;20046;-66
2021/01/03 13:59:40;;;;;;;9.02;7.57;;;;;;;;;;4998569;28;20042;-66
2021/01/03 14:02:07;;;;;;;10.63;8.02;;;;;;;;;;5000295;28;20052;-66
2021/01/03 14:04:32;;;;;;;13.20;8.95;;;;;;;;;;4997955;28;20072;-66
2021/01/03 14:06:57;;;;;;;10.25;8.00;;;;;;;;;;4999352;28;20065;-66
2021/01/03 14:09:23;;;;;;;9.57;8.57;;;;;;;;;;4996280;28;20389;-66
2021/01/03 14:11:48;;;;;;;11.68;8.73;;;;;;;;;;5000240;28;20036;-66
2021/01/03 14:14:14;;;;;;;13.68;8.15;;;;;;;;;;4999398;28;20083;-66
2021/01/03 14:16:39;;;;;;;11.40;7.90;;;;;;;;;;4998700;28;20081;-66
2021/01/03 14:19:05;;;;;;;11.05;8.25;;;;;;;;;;4999702;28;20037;-66
2021/01/03 14:21:37;;;;;;;15.30;9.13;;;;;;;;;;4996453;28;20027;-66
2021/01/03 14:24:04;;;;;;;9.52;7.78;;;;;;;;;;4998233;28;20492;-66
2021/01/03 14:26:37;;;;;;;12.68;8.43;;;;;;;;;;4996496;28;20342;-66
2021/01/03 14:29:03;;;;;;;11.50;8.38;;;;;;;;;;5000867;28;20041;-66
2021/01/03 14:31:30;;;;;;;15.68;8.82;;;;;;;;;;4993475;28;20041;-66
2021/01/03 14:33:56;;;;;;;9.82;7.45;;;;;;;;;;5001179;28;20033;-66
2021/01/03 14:36:23;;;;;;;13.63;8.65;;;;;;;;;;4997503;28;20038;-66
2021/01/03 14:38:53;;;;;;;10.70;8.10;;;;;;;;;;4999395;28;20033;-66
2021/01/03 14:41:18;;;;;;;13.68;9.32;;;;;;;;;;4997351;28;20088;-66